ADDS METAR Data INFO
IDs: Format: Raw Decoded Include TAF

Data at: 0200 UTC 17 Oct 2017

KSEE 170147Z 24006KT 10SM SKC 28/M00 A2997
KSEE 170047Z 22004KT 10SM SKC 30/M01 A2996
KSEE 162347Z 27011KT 10SM SKC 32/M03 A2997
KSEE 162247Z 27013KT 10SM SKC 35/M04 A2994
KSEE 162047Z 29010KT 10SM SKC 38/M03 A2998
KSEE 161947Z 28008KT 10SM SKC 37/M05 A3001
KSEE 161747Z 00000KT 10SM SKC 30/00 A3004
KSEE 161647Z 00000KT 10SM SKC 25/03 A3008
KSEE 161547Z 00000KT 10SM SKC 19/03 A3007
KSEE 161447Z 00000KT 10SM SKC 15/03 A3008
KSEE 161347Z 00000KT 10SM SKC 13/02 A3007
KSEE 161335Z AUTO 00000KT 10SM 14/02 A3005 RMK AO2
KSEE 161315Z AUTO 00000KT 10SM 15/02 A3005 RMK AO2
KSEE 161255Z AUTO 00000KT 10SM CLR 15/03 A3005 RMK AO2
KSEE 161235Z AUTO 00000KT 10SM CLR 15/03 A3004 RMK AO2
KSEE 161215Z AUTO 00000KT 10SM CLR 15/03 A3004 RMK AO2
KSEE 161155Z AUTO 00000KT 10SM 15/03 A3004 RMK AO2
KSEE 161135Z AUTO 00000KT 10SM CLR 16/04 A3004 RMK AO2
KSEE 161115Z AUTO 00000KT 10SM CLR 15/04 A3004 RMK AO2
KSEE 161055Z AUTO 00000KT 10SM CLR 15/04 A3004 RMK AO2
KSEE 161035Z AUTO 00000KT 10SM CLR 16/04 A3005 RMK AO2
KSEE 161015Z AUTO 00000KT 10SM 16/03 A3005 RMK AO2
KSEE 160955Z AUTO 00000KT 10SM 17/03 A3005 RMK AO2
KSEE 160935Z AUTO 00000KT 10SM CLR 17/04 A3006 RMK AO2
KSEE 160915Z AUTO 29003KT 10SM CLR 17/04 A3006 RMK AO2
KSEE 160855Z AUTO 00000KT 10SM CLR 17/04 A3006 RMK AO2
KSEE 160835Z AUTO 00000KT 10SM CLR 17/06 A3006 RMK AO2
KSEE 160815Z AUTO 00000KT 10SM CLR 18/04 A3006 RMK AO2
KSEE 160755Z AUTO 00000KT 10SM CLR 18/03 A3006 RMK AO2
KSEE 160735Z AUTO 00000KT 10SM CLR 18/04 A3006 RMK AO2
KSEE 160715Z AUTO 00000KT 10SM 18/04 A3006 RMK AO2
KSEE 160655Z AUTO 00000KT 10SM CLR 19/05 A3006 RMK AO2
KSEE 160635Z AUTO 00000KT 10SM CLR 19/04 A3007 RMK AO2
KSEE 160615Z AUTO 00000KT 10SM CLR 19/03 A3007 RMK AO2
KSEE 160555Z AUTO 00000KT 10SM CLR 19/05 A3007 RMK AO2
KSEE 160535Z AUTO 00000KT 10SM CLR 20/06 A3007 RMK AO2
KSEE 160515Z AUTO 00000KT 10SM CLR 20/05 A3007 RMK AO2
KSEE 160455Z AUTO 00000KT 10SM CLR 21/03 A3007 RMK AO2
KSEE 160435Z AUTO 31005KT 10SM CLR 21/03 A3007 RMK AO2
KSEE 160415Z AUTO 29005KT 10SM CLR 21/05 A3007 RMK AO2
KSEE 160347Z 00000KT 10SM SKC 22/05 A3008
KSEE 160247Z 00000KT 10SM SKC 24/09 A3007
KSEE 160147Z 00000KT 10SM SKC 27/08 A3005
KSEE 160047Z VRB06KT 10SM SKC 31/M01 A3003
KSEE 152347Z 25005KT 10SM SKC 33/01 A3000
KSEE 152247Z 25008KT 10SM SKC 34/03 A3001
KSEE 152147Z VRB06KT 10SM SKC 36/02 A2999
KSEE 152047Z 25007KT 10SM SKC 36/M02 A3002
KSEE 151947Z VRB06KT 10SM SKC 36/M04 A3002
KSEE 151847Z 00000KT 10SM SKC 33/M04 A3006
KSEE 151747Z 00000KT 10SM SKC 27/04 A3008
KSEE 151647Z 00000KT 10SM SKC 20/07 A3010
KSEE 151547Z 00000KT 10SM SKC 15/08 A3009